createdAt,value
2023-04-27T00:01:42.220Z,59.16
2023-04-27T00:04:09.177Z,60.90
2023-04-27T00:06:36.125Z,65.06
2023-04-27T00:09:03.903Z,67.48
2023-04-27T00:11:31.039Z,65.94
2023-04-27T00:13:57.782Z,65.39
2023-04-27T00:16:24.562Z,64.56
2023-04-27T00:18:52.270Z,64.20
2023-04-27T00:21:18.910Z,64.56
2023-04-27T00:23:45.858Z,64.09
2023-04-27T00:26:12.386Z,63.26
2023-04-27T00:28:39.278Z,62.54
2023-04-27T00:31:06.001Z,61.73
2023-04-27T00:33:32.667Z,61.93
2023-04-27T00:36:01.349Z,61.69
2023-04-27T00:38:29.486Z,61.60
2023-04-27T00:41:03.813Z,61.28
2023-04-27T00:43:30.613Z,61.25
2023-04-27T00:45:58.124Z,61.37
2023-04-27T00:48:25.548Z,61.02
2023-04-27T00:50:52.750Z,60.95
2023-04-27T00:53:19.959Z,61.04
2023-04-27T00:55:47.230Z,60.60
2023-04-27T00:58:13.819Z,60.28
2023-04-27T01:00:41.007Z,60.47
2023-04-27T01:03:08.374Z,60.67
2023-04-27T01:05:37.953Z,60.27
2023-04-27T01:08:05.505Z,59.92
2023-04-27T01:10:32.125Z,59.81
2023-04-27T01:12:58.905Z,58.64
2023-04-27T01:15:25.654Z,58.16
2023-04-27T01:18:02.663Z,59.46
2023-04-27T01:20:32.694Z,62.86
2023-04-27T01:22:59.969Z,65.57
2023-04-27T01:25:26.638Z,65.20
2023-04-27T01:27:54.510Z,64.72
2023-04-27T01:30:22.649Z,64.48
2023-04-27T01:32:50.121Z,64.08
2023-04-27T01:35:18.958Z,63.96
2023-04-27T01:37:47.644Z,63.99
2023-04-27T01:40:15.001Z,63.19
2023-04-27T01:42:42.142Z,63.36
2023-04-27T01:45:09.611Z,63.13
2023-04-27T01:47:36.402Z,63.43
2023-04-27T01:50:04.044Z,62.43
2023-04-27T01:52:30.631Z,62.44
2023-04-27T01:54:57.302Z,61.94
2023-04-27T01:57:23.925Z,61.91
2023-04-27T01:59:50.680Z,61.76
2023-04-27T02:02:17.293Z,61.42
2023-04-27T02:04:45.243Z,61.46
2023-04-27T02:07:12.316Z,61.75
2023-04-27T02:09:38.891Z,61.20
2023-04-27T02:12:06.125Z,60.87
2023-04-27T02:14:32.943Z,60.86
2023-04-27T02:17:06.237Z,60.59
2023-04-27T02:19:32.865Z,60.02
2023-04-27T02:21:59.459Z,59.86
2023-04-27T02:24:26.953Z,59.81
2023-04-27T02:26:53.578Z,60.32
2023-04-27T02:29:20.194Z,60.78
2023-04-27T02:31:47.540Z,61.68
2023-04-27T02:34:14.131Z,61.90
2023-04-27T02:36:40.767Z,61.73
2023-04-27T02:39:09.150Z,61.45
2023-04-27T02:41:37.049Z,61.32
2023-04-27T02:44:03.646Z,61.09
2023-04-27T02:46:30.835Z,61.26
2023-04-27T02:48:57.518Z,61.39
2023-04-27T02:51:24.100Z,61.54
2023-04-27T02:53:53.120Z,61.53
2023-04-27T02:56:19.718Z,62.12
2023-04-27T02:58:48.015Z,61.56
2023-04-27T03:01:17.292Z,61.22
2023-04-27T03:03:48.145Z,61.21
2023-04-27T03:06:15.342Z,61.76
2023-04-27T03:08:42.260Z,62.34
2023-04-27T03:11:09.553Z,62.65
2023-04-27T03:13:41.889Z,62.95
2023-04-27T03:16:11.840Z,62.78
2023-04-27T03:18:39.876Z,63.10
2023-04-27T03:21:07.150Z,63.25
2023-04-27T03:23:33.974Z,63.15
2023-04-27T03:26:01.190Z,63.33
2023-04-27T03:28:27.949Z,63.39
2023-04-27T03:30:55.406Z,63.50
2023-04-27T03:33:22.318Z,63.59
2023-04-27T03:35:56.552Z,63.48
2023-04-27T03:38:23.992Z,63.51
2023-04-27T03:40:50.846Z,62.85
2023-04-27T03:43:18.423Z,62.81
2023-04-27T03:45:45.058Z,62.68
2023-04-27T03:48:11.896Z,62.67
2023-04-27T03:50:38.754Z,62.80
2023-04-27T03:53:05.366Z,62.67
2023-04-27T03:55:32.100Z,62.76
2023-04-27T03:57:58.774Z,62.71
2023-04-27T04:00:25.386Z,63.05
2023-04-27T04:02:53.415Z,63.26
2023-04-27T04:05:20.557Z,63.32
2023-04-27T04:07:48.967Z,63.45
2023-04-27T04:10:15.640Z,63.71
2023-04-27T04:12:42.523Z,63.51
2023-04-27T04:15:09.390Z,63.24
2023-04-27T04:17:36.688Z,63.20
2023-04-27T04:20:08.008Z,63.37
2023-04-27T04:22:34.621Z,63.45
2023-04-27T04:25:01.397Z,63.35
2023-04-27T04:27:28.175Z,63.12
2023-04-27T04:29:55.617Z,62.83
2023-04-27T04:32:23.176Z,62.75
2023-04-27T04:34:52.700Z,63.17
2023-04-27T04:37:20.139Z,62.49
2023-04-27T04:39:46.730Z,62.17
2023-04-27T04:42:13.581Z,61.78
2023-04-27T04:44:43.293Z,61.15
2023-04-27T04:47:10.294Z,60.81
2023-04-27T04:49:36.971Z,60.26
2023-04-27T04:52:06.453Z,60.19
2023-04-27T04:54:32.997Z,60.13
2023-04-27T04:57:00.944Z,60.51
2023-04-27T04:59:29.037Z,60.30
2023-04-27T05:01:58.243Z,60.05
2023-04-27T05:04:25.158Z,60.09
2023-04-27T05:06:53.076Z,60.27
2023-04-27T05:09:19.638Z,60.23
2023-04-27T05:11:46.350Z,58.38
2023-04-27T05:14:12.912Z,59.92
2023-04-27T05:16:39.471Z,63.08
2023-04-27T05:19:06.074Z,66.17
2023-04-27T05:21:33.632Z,65.17
2023-04-27T05:24:00.735Z,63.72
2023-04-27T05:26:27.331Z,62.16
2023-04-27T05:28:53.862Z,62.00
2023-04-27T05:31:20.538Z,61.31
2023-04-27T05:33:47.151Z,60.75
2023-04-27T05:36:13.732Z,60.09
2023-04-27T05:38:40.586Z,59.05
2023-04-27T05:41:07.586Z,58.35
2023-04-27T05:43:35.163Z,60.13
2023-04-27T05:46:01.839Z,62.66
2023-04-27T05:48:28.488Z,63.11
2023-04-27T05:51:02.857Z,62.01
2023-04-27T05:53:30.210Z,60.91
2023-04-27T05:55:59.031Z,58.72
2023-04-27T05:58:25.962Z,58.22
2023-04-27T06:00:53.659Z,61.10
2023-04-27T06:03:20.641Z,61.92
2023-04-27T06:05:47.310Z,64.58
2023-04-27T06:08:14.017Z,62.91
2023-04-27T06:10:41.099Z,61.63
2023-04-27T06:13:07.627Z,58.34
2023-04-27T06:15:34.235Z,57.68
2023-04-27T06:18:00.815Z,59.21
2023-04-27T06:20:27.581Z,61.33
2023-04-27T06:22:54.479Z,61.32
2023-04-27T06:25:24.419Z,59.34
2023-04-27T06:27:52.693Z,57.64
2023-04-27T06:30:19.322Z,59.08
2023-04-27T06:32:46.044Z,60.04
2023-04-27T06:35:12.670Z,57.67
2023-04-27T06:37:39.258Z,54.00
2023-04-27T06:40:07.616Z,50.43
2023-04-27T06:42:34.859Z,46.04
2023-04-27T06:45:01.381Z,43.23
2023-04-27T06:47:30.860Z,38.39
2023-04-27T06:49:57.507Z,35.93
2023-04-27T06:52:24.107Z,33.86
2023-04-27T06:54:50.644Z,33.10
2023-04-27T06:57:17.314Z,33.13
2023-04-27T06:59:43.936Z,31.55
2023-04-27T07:02:10.905Z,29.62
2023-04-27T07:04:38.234Z,28.50
2023-04-27T07:07:05.052Z,27.88
2023-04-27T07:09:31.853Z,26.27
2023-04-27T07:11:59.029Z,25.09
2023-04-27T07:14:26.022Z,25.15
2023-04-27T07:16:52.640Z,24.20
2023-04-27T07:19:19.543Z,24.39
2023-04-27T07:21:46.228Z,24.26
2023-04-27T07:24:12.848Z,23.25
2023-04-27T07:26:39.657Z,23.22
2023-04-27T07:29:14.755Z,23.65
2023-04-27T07:31:52.184Z,23.32
2023-04-27T07:34:18.922Z,23.30
2023-04-27T07:36:45.807Z,22.70
2023-04-27T07:39:12.794Z,21.08
2023-04-27T07:41:39.799Z,20.95
2023-04-27T07:44:06.535Z,20.65
2023-04-27T07:46:33.182Z,20.80
2023-04-27T07:49:00.218Z,21.19
2023-04-27T07:51:28.870Z,21.70
2023-04-27T07:53:56.403Z,21.93
2023-04-27T07:56:22.978Z,22.00
2023-04-27T07:58:49.496Z,22.03
2023-04-27T08:01:16.916Z,22.14
2023-04-27T08:03:44.777Z,22.12
2023-04-27T08:06:12.156Z,21.26
2023-04-27T08:08:38.981Z,21.15
2023-04-27T08:11:09.729Z,21.61
2023-04-27T08:13:36.866Z,20.61
2023-04-27T08:16:03.699Z,20.94
2023-04-27T08:18:30.503Z,20.33
2023-04-27T08:20:57.170Z,20.86
2023-04-27T08:23:28.413Z,20.41
2023-04-27T08:25:55.182Z,20.86
2023-04-27T08:28:23.330Z,20.29
2023-04-27T08:30:50.099Z,21.38
2023-04-27T08:33:16.886Z,20.64
2023-04-27T08:35:43.565Z,20.82
2023-04-27T08:38:10.232Z,22.12
2023-04-27T08:40:41.714Z,24.86
2023-04-27T08:43:08.367Z,26.25
2023-04-27T08:45:34.907Z,25.89
2023-04-27T08:48:01.516Z,25.46
2023-04-27T08:50:28.658Z,24.58
2023-04-27T08:52:55.262Z,22.66
2023-04-27T08:55:22.110Z,21.59
2023-04-27T08:57:56.272Z,23.03
2023-04-27T09:00:24.746Z,24.15
2023-04-27T09:02:51.873Z,23.39
2023-04-27T09:05:20.113Z,24.75
2023-04-27T09:08:16.408Z,26.08
2023-04-27T09:10:53.278Z,27.47
2023-04-27T09:13:19.816Z,27.14
2023-04-27T09:15:51.821Z,27.33
2023-04-27T09:18:21.057Z,29.89
2023-04-27T09:20:52.433Z,32.60
2023-04-27T09:23:32.887Z,34.84
2023-04-27T09:26:01.552Z,36.96
2023-04-27T09:28:30.663Z,38.49
2023-04-27T09:31:02.035Z,41.05
2023-04-27T09:33:31.624Z,41.23
2023-04-27T09:35:59.964Z,43.77
2023-04-27T09:38:27.175Z,44.76
2023-04-27T09:40:54.937Z,45.86
2023-04-27T09:43:22.125Z,45.96
2023-04-27T09:45:50.165Z,46.76
2023-04-27T09:48:18.548Z,47.37
2023-04-27T09:50:46.577Z,46.36
2023-04-27T09:53:15.790Z,46.84
2023-04-27T09:56:35.181Z,46.10
2023-04-27T09:59:27.045Z,46.75
2023-04-27T10:02:02.796Z,46.70
2023-04-27T10:04:31.929Z,46.98
2023-04-27T10:07:00.039Z,46.62
2023-04-27T10:09:30.499Z,47.06
2023-04-27T10:12:15.659Z,47.83
2023-04-27T10:14:53.567Z,48.83
2023-04-27T10:17:27.114Z,47.14
2023-04-27T10:19:58.228Z,48.74
2023-04-27T10:22:40.599Z,49.91
2023-04-27T10:25:17.912Z,49.80
2023-04-27T10:27:49.870Z,50.50
2023-04-27T10:30:18.877Z,50.45
2023-04-27T10:32:58.018Z,50.34
2023-04-27T10:35:36.788Z,50.26
2023-04-27T10:38:11.224Z,49.12
2023-04-27T10:40:38.718Z,48.19
2023-04-27T10:43:13.228Z,47.34
2023-04-27T10:45:41.339Z,45.35
2023-04-27T10:48:08.773Z,43.86
2023-04-27T10:50:35.834Z,41.13
2023-04-27T10:53:05.376Z,41.33
2023-04-27T10:55:33.201Z,39.54
2023-04-27T10:58:01.563Z,40.42
2023-04-27T11:00:33.312Z,38.90
2023-04-27T11:03:14.582Z,39.12
2023-04-27T11:05:43.094Z,41.45
2023-04-27T11:08:12.163Z,42.71
2023-04-27T11:10:47.402Z,44.20
2023-04-27T11:13:16.109Z,44.87
2023-04-27T11:15:56.653Z,43.27
2023-04-27T11:18:31.753Z,43.26
2023-04-27T11:21:13.426Z,44.15
2023-04-27T11:23:41.245Z,44.10
2023-04-27T11:26:21.570Z,43.78
2023-04-27T11:29:12.548Z,43.40
2023-04-27T11:31:47.385Z,43.88
2023-04-27T11:34:19.688Z,44.18
2023-04-27T11:39:36.562Z,43.42
2023-04-27T11:42:23.495Z,43.32
2023-04-27T11:44:59.291Z,44.49
2023-04-27T11:47:31.201Z,45.02
2023-04-27T11:50:04.645Z,43.31
2023-04-27T11:52:36.277Z,43.99
2023-04-27T11:55:04.713Z,43.04
2023-04-27T11:57:33.654Z,43.78
2023-04-27T12:00:02.569Z,44.03
2023-04-27T12:02:40.707Z,44.50
2023-04-27T12:05:09.212Z,44.74
2023-04-27T12:07:36.432Z,44.83
2023-04-27T12:10:03.398Z,47.31
2023-04-27T12:12:30.026Z,47.23
2023-04-27T12:14:56.858Z,46.09
2023-04-27T12:17:23.529Z,45.07
2023-04-27T12:19:50.256Z,44.90
2023-04-27T12:22:16.883Z,43.74
2023-04-27T12:24:43.503Z,42.37
2023-04-27T12:27:10.105Z,41.47
2023-04-27T12:29:37.600Z,42.05
2023-04-27T12:32:04.670Z,39.72
2023-04-27T12:34:32.357Z,39.30
2023-04-27T12:36:59.215Z,39.57
2023-04-27T12:39:26.014Z,40.89
2023-04-27T12:41:54.165Z,40.50
2023-04-27T12:44:21.915Z,36.31
2023-04-27T12:46:48.903Z,36.78
2023-04-27T12:49:15.906Z,34.44
2023-04-27T12:51:43.280Z,33.60
2023-04-27T12:54:11.421Z,31.91
2023-04-27T12:56:38.289Z,32.29
2023-04-27T12:59:06.257Z,32.85
2023-04-27T13:01:33.434Z,32.52
2023-04-27T13:04:02.996Z,30.07
2023-04-27T13:06:32.200Z,34.59
2023-04-27T13:08:59.780Z,33.19
2023-04-27T13:11:27.234Z,32.26
2023-04-27T13:13:55.335Z,30.70
2023-04-27T13:16:25.177Z,31.49
2023-04-27T13:18:53.847Z,33.70
2023-04-27T13:21:21.051Z,31.70
2023-04-27T13:23:48.147Z,31.77
2023-04-27T13:26:16.574Z,32.13
2023-04-27T13:28:43.409Z,32.27
2023-04-27T13:31:11.123Z,34.05
2023-04-27T13:33:43.267Z,31.98
2023-04-27T13:36:11.509Z,31.46
2023-04-27T13:38:38.493Z,31.11
2023-04-27T13:41:06.605Z,31.18
2023-04-27T13:43:33.507Z,29.98
2023-04-27T13:46:01.587Z,28.81
2023-04-27T13:48:29.867Z,28.07
2023-04-27T13:50:56.962Z,30.56
2023-04-27T13:53:25.920Z,31.89
2023-04-27T13:55:57.524Z,33.02
2023-04-27T13:58:26.277Z,32.54
2023-04-27T14:00:53.919Z,33.14
2023-04-27T14:03:21.629Z,33.54
2023-04-27T14:05:51.012Z,32.17
2023-04-27T14:08:18.425Z,32.64
2023-04-27T14:10:46.012Z,32.99
2023-04-27T14:13:13.262Z,32.14
2023-04-27T14:15:40.427Z,31.65
2023-04-27T14:18:08.435Z,33.24
2023-04-27T14:20:36.437Z,33.47
2023-04-27T14:23:04.999Z,33.29
2023-04-27T14:25:35.183Z,33.59
2023-04-27T14:28:05.075Z,33.13
2023-04-27T14:30:35.462Z,33.01
2023-04-27T14:33:02.702Z,33.10
2023-04-27T14:35:29.621Z,33.55
2023-04-27T14:38:01.906Z,32.91
2023-04-27T14:40:32.569Z,33.39
2023-04-27T14:42:59.767Z,33.76
2023-04-27T14:45:36.720Z,34.44
2023-04-27T14:48:07.203Z,34.27
2023-04-27T14:50:34.671Z,34.24
2023-04-27T14:53:02.227Z,35.26
2023-04-27T14:55:29.561Z,35.38
2023-04-27T14:57:56.224Z,34.79
2023-04-27T15:00:22.934Z,34.99
2023-04-27T15:02:49.741Z,34.04
2023-04-27T15:05:16.448Z,33.53
2023-04-27T15:07:43.132Z,34.93
2023-04-27T15:10:10.069Z,35.38
2023-04-27T15:12:36.706Z,35.54
2023-04-27T15:15:03.681Z,35.17
2023-04-27T15:17:30.617Z,35.26
2023-04-27T15:19:57.254Z,36.51
2023-04-27T15:22:24.003Z,37.45
2023-04-27T15:24:51.259Z,37.88
2023-04-27T15:27:17.909Z,38.30
2023-04-27T15:29:44.651Z,38.86
2023-04-27T15:32:11.718Z,39.67
2023-04-27T15:34:38.837Z,40.36
2023-04-27T15:37:05.686Z,40.34
2023-04-27T15:39:32.306Z,40.32
2023-04-27T15:41:59.802Z,41.30
2023-04-27T15:44:27.167Z,41.28
2023-04-27T15:46:54.393Z,40.94
2023-04-27T15:49:21.734Z,41.44
2023-04-27T15:51:49.108Z,39.43
2023-04-27T15:54:17.728Z,39.88
2023-04-27T15:56:44.488Z,40.80
2023-04-27T15:59:12.193Z,40.67
2023-04-27T16:01:39.114Z,39.19
2023-04-27T16:04:06.397Z,41.11
2023-04-27T16:06:34.921Z,41.56
2023-04-27T16:09:03.535Z,40.07
2023-04-27T16:11:31.714Z,40.63
2023-04-27T16:13:59.599Z,39.84
2023-04-27T16:16:27.085Z,39.98
2023-04-27T16:18:53.951Z,40.50
2023-04-27T16:21:20.551Z,42.81
2023-04-27T16:23:47.515Z,43.59
2023-04-27T16:26:14.371Z,44.25
2023-04-27T16:28:41.532Z,44.70
2023-04-27T16:31:08.301Z,45.08
2023-04-27T16:33:34.998Z,45.29
2023-04-27T16:36:01.663Z,45.71
2023-04-27T16:38:28.250Z,45.83
2023-04-27T16:40:56.073Z,46.48
2023-04-27T16:43:22.972Z,47.00
2023-04-27T16:45:49.803Z,46.98
2023-04-27T16:48:17.651Z,47.06
2023-04-27T16:50:44.735Z,46.28
2023-04-27T16:53:19.831Z,45.74
2023-04-27T16:55:46.929Z,45.76
2023-04-27T16:58:13.831Z,46.80
2023-04-27T17:00:41.061Z,46.32
2023-04-27T17:03:07.892Z,47.35
2023-04-27T17:05:34.930Z,46.30
2023-04-27T17:08:03.061Z,47.34
2023-04-27T17:10:32.192Z,45.44
2023-04-27T17:12:59.324Z,45.75
2023-04-27T17:15:28.846Z,44.80
2023-04-27T17:17:56.295Z,45.60
2023-04-27T17:20:23.122Z,43.30
2023-04-27T17:22:49.741Z,43.55
2023-04-27T17:25:16.904Z,43.72
2023-04-27T17:27:43.493Z,44.06
2023-04-27T17:30:10.868Z,44.26
2023-04-27T17:32:37.780Z,45.30
2023-04-27T17:35:05.661Z,45.05
2023-04-27T17:37:32.669Z,45.55
2023-04-27T17:39:59.451Z,46.12
2023-04-27T17:42:26.232Z,46.88
2023-04-27T17:44:52.869Z,47.60
2023-04-27T17:47:22.265Z,47.53
2023-04-27T17:49:49.067Z,48.65
2023-04-27T17:52:16.063Z,48.60
2023-04-27T17:54:43.493Z,49.53
2023-04-27T17:57:10.100Z,49.65
2023-04-27T17:59:37.019Z,49.26
2023-04-27T18:02:03.699Z,49.23
2023-04-27T18:04:30.547Z,49.68
2023-04-27T18:06:57.513Z,52.22
2023-04-27T18:09:26.276Z,52.98
2023-04-27T18:11:53.085Z,52.03
2023-04-27T18:14:19.737Z,52.03
2023-04-27T18:16:46.497Z,52.92
2023-04-27T18:19:13.462Z,52.85
2023-04-27T18:21:40.684Z,52.73
2023-04-27T18:24:08.623Z,52.82
2023-04-27T18:26:36.979Z,51.88
2023-04-27T18:29:03.686Z,52.12
2023-04-27T18:31:30.673Z,51.94
2023-04-27T18:33:57.661Z,52.89
2023-04-27T18:36:27.624Z,53.20
2023-04-27T18:38:54.935Z,53.27
2023-04-27T18:41:21.544Z,52.94
2023-04-27T18:43:48.219Z,53.12
2023-04-27T18:46:14.998Z,53.43
2023-04-27T18:48:42.274Z,54.37
2023-04-27T18:51:09.151Z,54.57
2023-04-27T18:53:35.937Z,54.87
2023-04-27T18:56:03.189Z,55.10
2023-04-27T18:58:30.104Z,55.23
2023-04-27T19:00:56.852Z,56.19
2023-04-27T19:03:24.261Z,56.24
2023-04-27T19:05:52.571Z,57.39
2023-04-27T19:08:19.353Z,58.80
2023-04-27T19:10:46.227Z,57.98
2023-04-27T19:13:12.924Z,58.75
2023-04-27T19:15:39.708Z,58.87
2023-04-27T19:18:11.354Z,59.41
2023-04-27T19:20:40.827Z,59.09
2023-04-27T19:23:09.451Z,59.21
2023-04-27T19:25:36.727Z,59.78
2023-04-27T19:28:04.582Z,60.02
2023-04-27T19:30:31.415Z,60.03
2023-04-27T19:32:58.213Z,60.09
2023-04-27T19:35:26.548Z,60.22
2023-04-27T19:37:53.395Z,60.78
2023-04-27T19:40:20.002Z,60.98
2023-04-27T19:42:48.064Z,60.61
2023-04-27T19:45:15.499Z,61.23
2023-04-27T19:47:42.265Z,64.30
2023-04-27T19:50:09.680Z,64.27
2023-04-27T19:52:36.905Z,62.82
2023-04-27T19:55:04.451Z,59.89
2023-04-27T19:57:31.479Z,57.92
2023-04-27T19:59:58.146Z,57.77
2023-04-27T20:02:25.066Z,58.55
2023-04-27T20:04:52.151Z,59.83
2023-04-27T20:07:18.976Z,60.02
2023-04-27T20:09:45.680Z,60.56
2023-04-27T20:12:28.910Z,61.35
2023-04-27T20:14:59.173Z,64.96
2023-04-27T20:17:27.444Z,65.92
2023-04-27T20:19:56.301Z,64.50
2023-04-27T20:22:23.923Z,62.56
2023-04-27T20:24:50.899Z,61.08
2023-04-27T20:27:18.128Z,58.73
2023-04-27T20:29:46.718Z,57.27
2023-04-27T20:32:13.501Z,58.33
2023-04-27T20:34:40.101Z,59.62
2023-04-27T20:37:07.847Z,60.21
2023-04-27T20:39:35.156Z,63.28
2023-04-27T20:42:02.183Z,65.59
2023-04-27T20:44:29.030Z,64.25
2023-04-27T20:46:56.248Z,62.35
2023-04-27T20:49:31.895Z,60.98
2023-04-27T20:52:01.893Z,59.18
2023-04-27T20:54:31.094Z,57.97
2023-04-27T20:56:58.067Z,58.84
2023-04-27T20:59:25.215Z,59.78
2023-04-27T21:01:52.215Z,61.05
2023-04-27T21:04:19.293Z,64.78
2023-04-27T21:06:46.441Z,66.83
2023-04-27T21:09:13.176Z,65.50
2023-04-27T21:11:40.039Z,63.73
2023-04-27T21:14:07.039Z,62.36
2023-04-27T21:16:33.942Z,61.21
2023-04-27T21:19:00.925Z,60.33
2023-04-27T21:21:27.839Z,58.42
2023-04-27T21:24:04.209Z,57.60
2023-04-27T21:26:42.537Z,58.84
2023-04-27T21:29:09.122Z,60.79
2023-04-27T21:31:35.969Z,64.05
2023-04-27T21:34:05.800Z,66.26
2023-04-27T21:36:32.372Z,65.52
2023-04-27T21:38:58.906Z,64.12
2023-04-27T21:41:26.229Z,63.02
2023-04-27T21:43:52.899Z,62.06
2023-04-27T21:46:19.665Z,61.20
2023-04-27T21:48:46.334Z,60.72
2023-04-27T21:51:14.945Z,58.72
2023-04-27T21:53:41.697Z,57.91
2023-04-27T21:56:08.424Z,59.27
2023-04-27T21:58:35.077Z,60.66
2023-04-27T22:01:01.844Z,64.29
2023-04-27T22:03:28.772Z,66.77
2023-04-27T22:05:57.664Z,65.98
2023-04-27T22:08:24.375Z,65.02
2023-04-27T22:10:51.234Z,63.53
2023-04-27T22:13:19.328Z,62.41
2023-04-27T22:15:47.446Z,62.14
2023-04-27T22:18:15.662Z,61.55
2023-04-27T22:20:43.223Z,61.24
2023-04-27T22:23:10.897Z,60.89
2023-04-27T22:25:37.695Z,60.11
2023-04-27T22:28:04.545Z,60.00
2023-04-27T22:30:31.334Z,58.32
2023-04-27T22:32:58.376Z,57.96
2023-04-27T22:35:27.687Z,58.98
2023-04-27T22:37:59.136Z,60.61
2023-04-27T22:40:26.463Z,64.45
2023-04-27T22:42:54.896Z,66.60
2023-04-27T22:45:22.738Z,65.80
2023-04-27T22:47:49.577Z,64.57
2023-04-27T22:50:16.763Z,63.50
2023-04-27T22:52:43.727Z,62.69
2023-04-27T22:55:11.999Z,61.87
2023-04-27T22:57:39.744Z,61.55
2023-04-27T23:00:09.093Z,61.31
2023-04-27T23:02:36.024Z,61.30
2023-04-27T23:05:03.878Z,60.87
2023-04-27T23:07:30.711Z,60.68
2023-04-27T23:09:57.313Z,60.33
2023-04-27T23:12:26.946Z,59.06
2023-04-27T23:14:53.526Z,59.15
2023-04-27T23:17:22.579Z,60.19
2023-04-27T23:19:49.684Z,63.30
2023-04-27T23:22:16.640Z,65.93
2023-04-27T23:24:43.393Z,65.19
2023-04-27T23:27:09.922Z,64.28
2023-04-27T23:29:36.518Z,63.51
2023-04-27T23:32:04.624Z,62.80
2023-04-27T23:34:34.298Z,61.96
2023-04-27T23:37:01.519Z,61.04
2023-04-27T23:39:28.641Z,60.67
2023-04-27T23:41:55.411Z,60.51
2023-04-27T23:44:22.112Z,60.04
2023-04-27T23:46:48.637Z,58.90
2023-04-27T23:49:15.421Z,57.99
2023-04-27T23:51:42.154Z,59.14
2023-04-27T23:54:09.002Z,60.66
2023-04-27T23:56:36.634Z,63.90
2023-04-27T23:59:03.512Z,65.97
